Neptune Avra — 9HKH6 — position and weather

sailwx.info

Track history (hours):
 
Tides and Currents Weather Stations Pressure Air Temp Water Temp Dewpoint Dewpoint Depression Visibility Wind Speed Wind Dir Waves Ship Positions

Neptune Avra

Last reported at 2014-Jul-30 08:33 UTC. Time now 2014-Jul-30 09:11 UTC.
Position N 36°18' E 026°15'.

Length 155 m; draft 5.9 m.

Type: Cargo ship. MMSI: 248598000.

Date/timePositionNaut miles runAvg speedWind from/ knotsBaromVisibWave heightAir tempDewpointWater temp
2014-Jul-30 08:33N 36°18' E 026°15'1414.4
2014-Jul-30 07:33N 36°12' E 026°31'11314.1
2014-Jul-29 23:32N 35°13' E 028°30'7214.4
2014-Jul-29 18:33N 34°32' E 029°42'1414.4
2014-Jul-29 17:33N 34°23' E 029°56'1414.2
2014-Jul-29 16:33N 34°15' E 030°10'1413.9
2014-Jul-29 15:33N 34°08' E 030°25'1413.9
2014-Jul-29 14:33N 34°00' E 030°39'1414.1
2014-Jul-29 13:33N 33°52' E 030°52'1414.2
2014-Jul-29 12:33N 33°44' E 031°06'1413.9
2014-Jul-29 11:33N 33°36' E 031°20'1414.1
2014-Jul-29 10:34N 33°28' E 031°34'1414.4
2014-Jul-29 09:33N 33°20' E 031°49'1414.3
2014-Jul-29 08:33N 33°11' E 032°02'1614.6
2014-Jul-29 07:27N 33°02' E 032°18'1415.2
2014-Jul-29 06:34N 32°55' E 032°32'1615.4
2014-Jul-29 05:33N 32°46' E 032°47'3015.1
2014-Jul-29 03:34N 32°29' E 033°16'1515.0
2014-Jul-29 02:34N 32°20' E 033°31'  
2014-Jul-24 11:22N 36°15' E 015°12'1815.4
2014-Jul-24 10:14N 36°21' E 014°51'1115.8
2014-Jul-24 09:33N 36°25' E 014°39'1815.6
2014-Jul-24 08:26N 36°32' E 014°19'1315.4
2014-Jul-24 07:34N 36°37' E 014°03'1615.0
2014-Jul-24 06:31N 36°42' E 013°45'42314.9
2014-Jul-23 02:13N 39°46' E 005°40'4315.5
2014-Jul-22 23:27N 40°07' E 004°52'1414.7
2014-Jul-22 22:30N 40°14' E 004°36'3614.7
2014-Jul-22 20:04N 40°32' E 003°55'2315.0
2014-Jul-22 18:33N 40°43' E 003°29'1514.9
2014-Jul-22 17:33N 40°51' E 003°12'1515.0
2014-Jul-22 16:34N 40°58' E 002°55'1514.6
2014-Jul-22 15:33N 41°05' E 002°38'1414.3
2014-Jul-22 14:33N 41°12' E 002°21'1211.9
2014-Jul-22 13:33N 41°21' E 002°10'1 0.9
2014-Jul-22 12:33N 41°20' E 002°09'0 0.0
2014-Jul-22 09:25N 41°20' E 002°09'0 0.0
2014-Jul-22 08:12N 41°20' E 002°09'0 0.0
2014-Jul-22 03:31N 41°20' E 002°09'7 6.7
2014-Jul-22 02:32N 41°14' E 002°13'1414.7
2014-Jul-22 01:34N 41°03' E 002°25'1514.9
2014-Jul-22 00:33N 40°51' E 002°36'1515.2
2014-Jul-21 23:33N 40°38' E 002°48'1515.1
2014-Jul-21 22:33N 40°26' E 002°59'3415.0
2014-Jul-21 20:17N 39°59' E 003°26'1114.4
2014-Jul-21 19:33N 39°50' E 003°34'1514.8
2014-Jul-21 18:30N 39°37' E 003°46'1 1.1
2014-Jul-21 17:31N 39°36' E 003°46'  
Track history (hours):
 
Tides and Currents Weather Stations Pressure Air Temp Water Temp Dewpoint Dewpoint Depression Visibility Wind Speed Wind Dir Waves Ship Positions

Neptune Avra

Last reported at 2014-Jul-30 08:33 UTC. Time now 2014-Jul-30 09:11 UTC.
Position N 36°18' E 026°15'.

Length 155 m; draft 5.9 m.

Type: Cargo ship. MMSI: 248598000.

Date/timePositionNaut miles runAvg speedWind from/ knotsBaromVisibWave heightAir tempDewpointWater temp
2014-Jul-30 08:33N 36°18' E 026°15'1414.4
2014-Jul-30 07:33N 36°12' E 026°31'11314.1
2014-Jul-29 23:32N 35°13' E 028°30'7214.4
2014-Jul-29 18:33N 34°32' E 029°42'1414.4
2014-Jul-29 17:33N 34°23' E 029°56'1414.2
2014-Jul-29 16:33N 34°15' E 030°10'1413.9
2014-Jul-29 15:33N 34°08' E 030°25'1413.9
2014-Jul-29 14:33N 34°00' E 030°39'1414.1
2014-Jul-29 13:33N 33°52' E 030°52'1414.2
2014-Jul-29 12:33N 33°44' E 031°06'1413.9
2014-Jul-29 11:33N 33°36' E 031°20'1414.1
2014-Jul-29 10:34N 33°28' E 031°34'1414.4
2014-Jul-29 09:33N 33°20' E 031°49'1414.3
2014-Jul-29 08:33N 33°11' E 032°02'1614.6
2014-Jul-29 07:27N 33°02' E 032°18'1415.2
2014-Jul-29 06:34N 32°55' E 032°32'1615.4
2014-Jul-29 05:33N 32°46' E 032°47'3015.1
2014-Jul-29 03:34N 32°29' E 033°16'1515.0
2014-Jul-29 02:34N 32°20' E 033°31'  
2014-Jul-24 11:22N 36°15' E 015°12'1815.4
2014-Jul-24 10:14N 36°21' E 014°51'1115.8
2014-Jul-24 09:33N 36°25' E 014°39'1815.6
2014-Jul-24 08:26N 36°32' E 014°19'1315.4
2014-Jul-24 07:34N 36°37' E 014°03'1615.0
2014-Jul-24 06:31N 36°42' E 013°45'42314.9
2014-Jul-23 02:13N 39°46' E 005°40'4315.5
2014-Jul-22 23:27N 40°07' E 004°52'1414.7
2014-Jul-22 22:30N 40°14' E 004°36'3614.7
2014-Jul-22 20:04N 40°32' E 003°55'2315.0
2014-Jul-22 18:33N 40°43' E 003°29'1514.9
2014-Jul-22 17:33N 40°51' E 003°12'1515.0
2014-Jul-22 16:34N 40°58' E 002°55'1514.6
2014-Jul-22 15:33N 41°05' E 002°38'1414.3
2014-Jul-22 14:33N 41°12' E 002°21'1211.9
2014-Jul-22 13:33N 41°21' E 002°10'1 0.9
2014-Jul-22 12:33N 41°20' E 002°09'0 0.0
2014-Jul-22 09:25N 41°20' E 002°09'0 0.0
2014-Jul-22 08:12N 41°20' E 002°09'0 0.0
2014-Jul-22 03:31N 41°20' E 002°09'7 6.7
2014-Jul-22 02:32N 41°14' E 002°13'1414.7
2014-Jul-22 01:34N 41°03' E 002°25'1514.9
2014-Jul-22 00:33N 40°51' E 002°36'1515.2
2014-Jul-21 23:33N 40°38' E 002°48'1515.1
2014-Jul-21 22:33N 40°26' E 002°59'3415.0
2014-Jul-21 20:17N 39°59' E 003°26'1114.4
2014-Jul-21 19:33N 39°50' E 003°34'1514.8
2014-Jul-21 18:30N 39°37' E 003°46'1 1.1
2014-Jul-21 17:31N 39°36' E 003°46'  

Dump ship's entire track history